sensor_id;sensor_type;location;lat;lon;timestamp;P1;P2;P0
74436;PMS7003;62868;52.360;30.424;2023-07-31T00:00:19;0;0;0
74436;PMS7003;62868;52.360;30.424;2023-07-31T00:05:33;0;0;0
74436;PMS7003;62868;52.360;30.424;2023-07-31T00:10:57;0;0;0
74436;PMS7003;62868;52.360;30.424;2023-07-31T00:15:27;0;0;0
74436;PMS7003;62868;52.360;30.424;2023-07-31T00:20:31;0;0;0
74436;PMS7003;62868;52.360;30.424;2023-07-31T00:25:57;0;0;0
74436;PMS7003;62868;52.360;30.424;2023-07-31T00:30:35;0;0;0
74436;PMS7003;62868;52.360;30.424;2023-07-31T00:35:19;0.3;0.3;0
74436;PMS7003;62868;52.360;30.424;2023-07-31T00:40:13;0;0;0
74436;PMS7003;62868;52.360;30.424;2023-07-31T00:45:57;0.3;0.3;0
74436;PMS7003;62868;52.360;30.424;2023-07-31T00:50:47;0;0;0
74436;PMS7003;62868;52.360;30.424;2023-07-31T00:55:31;0;0;0
74436;PMS7003;62868;52.360;30.424;2023-07-31T01:00:13;0.3;0;0
74436;PMS7003;62868;52.360;30.424;2023-07-31T01:05:57;0;0;0
74436;PMS7003;62868;52.360;30.424;2023-07-31T01:10:15;0;0;0
74436;PMS7003;62868;52.360;30.424;2023-07-31T01:15:13;0.3;0;0
74436;PMS7003;62868;52.360;30.424;2023-07-31T01:20:43;0;0;0
74436;PMS7003;62868;52.360;30.424;2023-07-31T01:25:51;0;0;0
74436;PMS7003;62868;52.360;30.424;2023-07-31T01:30:57;0;0;0
74436;PMS7003;62868;52.360;30.424;2023-07-31T01:35:47;0.3;0.3;0
74436;PMS7003;62868;52.360;30.424;2023-07-31T01:40:13;0.3;0.3;0
74436;PMS7003;62868;52.360;30.424;2023-07-31T01:45:13;0;0;0
74436;PMS7003;62868;52.360;30.424;2023-07-31T01:50:59;0.3;0.3;0
74436;PMS7003;62868;52.360;30.424;2023-07-31T01:55:35;0;0;0
74436;PMS7003;62868;52.360;30.424;2023-07-31T02:00:47;0.3;0;0
74436;PMS7003;62868;52.360;30.424;2023-07-31T02:05:57;0.3;0.3;0
74436;PMS7003;62868;52.360;30.424;2023-07-31T02:10:43;0;0;0
74436;PMS7003;62868;52.360;30.424;2023-07-31T02:15:13;0;0;0
74436;PMS7003;62868;52.360;30.424;2023-07-31T02:20:13;0;0;0
74436;PMS7003;62868;52.360;30.424;2023-07-31T02:25:57;0.3;0.3;0
74436;PMS7003;62868;52.360;30.424;2023-07-31T02:30:57;0.3;0.3;0
74436;PMS7003;62868;52.360;30.424;2023-07-31T02:35:57;0;0;0
74436;PMS7003;62868;52.360;30.424;2023-07-31T02:40:35;0.3;0.3;0
74436;PMS7003;62868;52.360;30.424;2023-07-31T02:45:43;0.7;0.3;0
74436;PMS7003;62868;52.360;30.424;2023-07-31T02:50:19;0;0;0
74436;PMS7003;62868;52.360;30.424;2023-07-31T02:55:43;0.7;0.3;0
74436;PMS7003;62868;52.360;30.424;2023-07-31T03:00:57;0.3;0.3;0.3
74436;PMS7003;62868;52.360;30.424;2023-07-31T03:05:41;0.7;0.7;0
74436;PMS7003;62868;52.360;30.424;2023-07-31T03:10:31;0;0;0
74436;PMS7003;62868;52.360;30.424;2023-07-31T03:15:57;0;0;0
74436;PMS7003;62868;52.360;30.424;2023-07-31T03:20:25;0.3;0;0
74436;PMS7003;62868;52.360;30.424;2023-07-31T03:25:13;0;0;0
74436;PMS7003;62868;52.360;30.424;2023-07-31T03:30:21;0;0;0
74436;PMS7003;62868;52.360;30.424;2023-07-31T03:35:41;0;0;0
74436;PMS7003;62868;52.360;30.424;2023-07-31T03:40:41;0;0;0
74436;PMS7003;62868;52.360;30.424;2023-07-31T03:45:43;0;0;0
74436;PMS7003;62868;52.360;30.424;2023-07-31T03:50:33;0.3;0.3;0.3
74436;PMS7003;62868;52.360;30.424;2023-07-31T03:55:19;0;0;0
74436;PMS7003;62868;52.360;30.424;2023-07-31T04:00:41;0.3;0.3;0.3
74436;PMS7003;62868;52.360;30.424;2023-07-31T04:05:27;0;0;0
74436;PMS7003;62868;52.360;30.424;2023-07-31T04:10:13;0;0;0
74436;PMS7003;62868;52.360;30.424;2023-07-31T04:15:15;0;0;0
74436;PMS7003;62868;52.360;30.424;2023-07-31T04:20:57;0;0;0
74436;PMS7003;62868;52.360;30.424;2023-07-31T04:25:21;0;0;0
74436;PMS7003;62868;52.360;30.424;2023-07-31T04:30:19;0;0;0
74436;PMS7003;62868;52.360;30.424;2023-07-31T04:35:58;0;0;0
74436;PMS7003;62868;52.360;30.424;2023-07-31T04:40:27;0.7;0.3;0.3
74436;PMS7003;62868;52.360;30.424;2023-07-31T04:45:27;0;0;0
74436;PMS7003;62868;52.360;30.424;2023-07-31T04:50:33;0.5;0.5;0
74436;PMS7003;62868;52.360;30.424;2023-07-31T04:55:47;0;0;0
74436;PMS7003;62868;52.360;30.424;2023-07-31T05:00:13;0;0;0
74436;PMS7003;62868;52.360;30.424;2023-07-31T05:05:17;0;0;0
74436;PMS7003;62868;52.360;30.424;2023-07-31T05:10:55;0;0;0
74436;PMS7003;62868;52.360;30.424;2023-07-31T05:15:45;0;0;0
74436;PMS7003;62868;52.360;30.424;2023-07-31T05:20:29;0;0;0
74436;PMS7003;62868;52.360;30.424;2023-07-31T05:25:55;0;0;0
74436;PMS7003;62868;52.360;30.424;2023-07-31T05:30:58;0;0;0
74436;PMS7003;62868;52.360;30.424;2023-07-31T05:35:17;0.3;0.3;0.3
74436;PMS7003;62868;52.360;30.424;2023-07-31T05:40:19;0;0;0
74436;PMS7003;62868;52.360;30.424;2023-07-31T05:45:27;0.3;0;0
74436;PMS7003;62868;52.360;30.424;2023-07-31T05:50:43;0;0;0
74436;PMS7003;62868;52.360;30.424;2023-07-31T05:55:55;0;0;0
74436;PMS7003;62868;52.360;30.424;2023-07-31T06:00:31;0.3;0.3;0
74436;PMS7003;62868;52.360;30.424;2023-07-31T06:05:17;0;0;0
74436;PMS7003;62868;52.360;30.424;2023-07-31T06:10:25;0;0;0
74436;PMS7003;62868;52.360;30.424;2023-07-31T06:15:55;0;0;0
74436;PMS7003;62868;52.360;30.424;2023-07-31T06:20:41;0;0;0
74436;PMS7003;62868;52.360;30.424;2023-07-31T06:25:41;0;0;0
74436;PMS7003;62868;52.360;30.424;2023-07-31T06:30:53;0;0;0
74436;PMS7003;62868;52.360;30.424;2023-07-31T06:35:41;0.3;0.3;0.3
74436;PMS7003;62868;52.360;30.424;2023-07-31T06:40:13;0;0;0
74436;PMS7003;62868;52.360;30.424;2023-07-31T06:45:27;0.7;0.7;0.3
74436;PMS7003;62868;52.360;30.424;2023-07-31T06:50:53;0.5;0.3;0
74436;PMS7003;62868;52.360;30.424;2023-07-31T06:55:53;0.3;0.3;0.3
74436;PMS7003;62868;52.360;30.424;2023-07-31T07:00:53;0;0;0
74436;PMS7003;62868;52.360;30.424;2023-07-31T07:05:54;0.3;0.3;0.3
74436;PMS7003;62868;52.360;30.424;2023-07-31T07:10:41;0.5;0.5;0.5
74436;PMS7003;62868;52.360;30.424;2023-07-31T07:15:21;0.3;0.3;0
74436;PMS7003;62868;52.360;30.424;2023-07-31T07:20:46;0;0;0
74436;PMS7003;62868;52.360;30.424;2023-07-31T07:25:53;0;0;0
74436;PMS7003;62868;52.360;30.424;2023-07-31T07:30:37;0.3;0.3;0.3
74436;PMS7003;62868;52.360;30.424;2023-07-31T07:35:13;0;0;0
74436;PMS7003;62868;52.360;30.424;2023-07-31T07:40:53;0.3;0.3;0.3
74436;PMS7003;62868;52.360;30.424;2023-07-31T07:45:53;0;0;0
74436;PMS7003;62868;52.360;30.424;2023-07-31T07:50:21;0;0;0
74436;PMS7003;62868;52.360;30.424;2023-07-31T07:55:25;0.7;0.7;0.7
74436;PMS7003;62868;52.360;30.424;2023-07-31T08:00:27;0.3;0.3;0.3
74436;PMS7003;62868;52.360;30.424;2023-07-31T08:05:37;0;0;0
74436;PMS7003;62868;52.360;30.424;2023-07-31T08:10:41;0.3;0;0
74436;PMS7003;62868;52.360;30.424;2023-07-31T08:15:31;0;0;0
74436;PMS7003;62868;52.360;30.424;2023-07-31T08:20:43;0.3;0;0
74436;PMS7003;62868;52.360;30.424;2023-07-31T08:25:13;0.3;0.3;0
74436;PMS7003;62868;52.360;30.424;2023-07-31T08:30:25;0;0;0
74436;PMS7003;62868;52.360;30.424;2023-07-31T08:35:27;0.5;0;0
74436;PMS7003;62868;52.360;30.424;2023-07-31T08:40:25;0.3;0.3;0.3
74436;PMS7003;62868;52.360;30.424;2023-07-31T08:45:53;0;0;0
74436;PMS7003;62868;52.360;30.424;2023-07-31T08:50:13;0.3;0.3;0
74436;PMS7003;62868;52.360;30.424;2023-07-31T08:55:13;0.3;0;0
74436;PMS7003;62868;52.360;30.424;2023-07-31T09:00:15;0.7;0.3;0.3
74436;PMS7003;62868;52.360;30.424;2023-07-31T09:05:26;0.3;0.3;0.3
74436;PMS7003;62868;52.360;30.424;2023-07-31T09:10:13;0.3;0;0
74436;PMS7003;62868;52.360;30.424;2023-07-31T09:15:31;0;0;0
74436;PMS7003;62868;52.360;30.424;2023-07-31T09:20:43;5;4.3;3.3
74436;PMS7003;62868;52.360;30.424;2023-07-31T09:25:22;10.8;9.5;7
74436;PMS7003;62868;52.360;30.424;2023-07-31T09:30:32;10;10;8.3
74436;PMS7003;62868;52.360;30.424;2023-07-31T09:35:53;3.3;3.3;3.3
74436;PMS7003;62868;52.360;30.424;2023-07-31T09:40:44;3.3;2.7;2
74436;PMS7003;62868;52.360;30.424;2023-07-31T09:45:27;1.5;1;0.3
74436;PMS7003;62868;52.360;30.424;2023-07-31T09:50:27;0.3;0;0
74436;PMS7003;62868;52.360;30.424;2023-07-31T09:55:55;0.3;0.3;0
74436;PMS7003;62868;52.360;30.424;2023-07-31T10:00:14;0.3;0;0
74436;PMS7003;62868;52.360;30.424;2023-07-31T10:05:13;0.5;0.3;0.3
74436;PMS7003;62868;52.360;30.424;2023-07-31T10:10:55;1.3;1;0.7
74436;PMS7003;62868;52.360;30.424;2023-07-31T10:15:45;2.3;2;2
74436;PMS7003;62868;52.360;30.424;2023-07-31T10:20:55;4.5;4;3.5
74436;PMS7003;62868;52.360;30.424;2023-07-31T10:25:31;4;3.3;2
74436;PMS7003;62868;52.360;30.424;2023-07-31T10:30:14;0.7;0.7;0.3
74436;PMS7003;62868;52.360;30.424;2023-07-31T10:35:13;0.3;0.3;0
74436;PMS7003;62868;52.360;30.424;2023-07-31T10:40:53;8.5;7.5;5.5
74436;PMS7003;62868;52.360;30.424;2023-07-31T10:45:42;1.7;1.7;0.7
74436;PMS7003;62868;52.360;30.424;2023-07-31T10:50:46;0.7;0.7;0.3
74436;PMS7003;62868;52.360;30.424;2023-07-31T10:55:53;0.3;0.3;0.3
74436;PMS7003;62868;52.360;30.424;2023-07-31T11:00:42;0.3;0;0
74436;PMS7003;62868;52.360;30.424;2023-07-31T11:05:17;0;0;0
74436;PMS7003;62868;52.360;30.424;2023-07-31T11:10:25;0;0;0
74436;PMS7003;62868;52.360;30.424;2023-07-31T11:15:53;4.3;3.7;2.7
74436;PMS7003;62868;52.360;30.424;2023-07-31T11:20:53;1.8;1.8;1.5
74436;PMS7003;62868;52.360;30.424;2023-07-31T11:25:53;1.3;1.3;1
74436;PMS7003;62868;52.360;30.424;2023-07-31T11:30:55;10;8.3;7
74436;PMS7003;62868;52.360;30.424;2023-07-31T11:35:42;4.7;4;3.3
74436;PMS7003;62868;52.360;30.424;2023-07-31T11:40:31;6.8;6.5;5
74436;PMS7003;62868;52.360;30.424;2023-07-31T11:45:55;12;11.7;8.3
74436;PMS7003;62868;52.360;30.424;2023-07-31T11:50:57;20;18.7;11.7
74436;PMS7003;62868;52.360;30.424;2023-07-31T11:55:39;13.5;10.5;7.8
74436;PMS7003;62868;52.360;30.424;2023-07-31T12:00:25;10.7;10;7.3
74436;PMS7003;62868;52.360;30.424;2023-07-31T12:05:55;9.3;8.3;5.7
74436;PMS7003;62868;52.360;30.424;2023-07-31T12:10:30;1.7;1.3;1
74436;PMS7003;62868;52.360;30.424;2023-07-31T12:15:17;0.8;0.5;0.3
74436;PMS7003;62868;52.360;30.424;2023-07-31T12:20:21;4;3.7;2.7
74436;PMS7003;62868;52.360;30.424;2023-07-31T12:25:28;1.3;1.3;0.3
74436;PMS7003;62868;52.360;30.424;2023-07-31T12:30:33;0.3;0.3;0
74436;PMS7003;62868;52.360;30.424;2023-07-31T12:35:42;0.5;0.3;0.3
74436;PMS7003;62868;52.360;30.424;2023-07-31T12:40:57;0;0;0
74436;PMS7003;62868;52.360;30.424;2023-07-31T12:45:29;0;0;0
74436;PMS7003;62868;52.360;30.424;2023-07-31T12:50:13;4.3;3.7;2.7
74436;PMS7003;62868;52.360;30.424;2023-07-31T12:55:41;0.5;0.5;0.5
74436;PMS7003;62868;52.360;30.424;2023-07-31T13:00:43;0;0;0
74436;PMS7003;62868;52.360;30.424;2023-07-31T13:05:41;0;0;0
74436;PMS7003;62868;52.360;30.424;2023-07-31T13:10:57;0;0;0
74436;PMS7003;62868;52.360;30.424;2023-07-31T13:15:31;0;0;0
74436;PMS7003;62868;52.360;30.424;2023-07-31T13:20:17;0;0;0
74436;PMS7003;62868;52.360;30.424;2023-07-31T13:25:41;0;0;0
74436;PMS7003;62868;52.360;30.424;2023-07-31T13:30:25;0;0;0
74436;PMS7003;62868;52.360;30.424;2023-07-31T13:35:31;0;0;0
74436;PMS7003;62868;52.360;30.424;2023-07-31T13:40:47;0;0;0
74436;PMS7003;62868;52.360;30.424;2023-07-31T13:45:57;0.3;0;0
74436;PMS7003;62868;52.360;30.424;2023-07-31T13:50:13;0.3;0.3;0.3
74436;PMS7003;62868;52.360;30.424;2023-07-31T13:55:31;1.3;1;0.7
74436;PMS7003;62868;52.360;30.424;2023-07-31T14:00:57;0.3;0.3;0
74436;PMS7003;62868;52.360;30.424;2023-07-31T14:05:25;0.3;0.3;0
74436;PMS7003;62868;52.360;30.424;2023-07-31T14:10:31;0;0;0
74436;PMS7003;62868;52.360;30.424;2023-07-31T14:15:31;0;0;0
74436;PMS7003;62868;52.360;30.424;2023-07-31T14:20:47;0;0;0
74436;PMS7003;62868;52.360;30.424;2023-07-31T14:25:13;0;0;0
74436;PMS7003;62868;52.360;30.424;2023-07-31T14:30:17;0;0;0
74436;PMS7003;62868;52.360;30.424;2023-07-31T14:35:57;0;0;0
74436;PMS7003;62868;52.360;30.424;2023-07-31T14:40:47;0;0;0
74436;PMS7003;62868;52.360;30.424;2023-07-31T14:45:57;0;0;0
74436;PMS7003;62868;52.360;30.424;2023-07-31T14:50:31;0;0;0
74436;PMS7003;62868;52.360;30.424;2023-07-31T14:55:13;0;0;0
74436;PMS7003;62868;52.360;30.424;2023-07-31T15:00:17;0;0;0
74436;PMS7003;62868;52.360;30.424;2023-07-31T15:05:57;0;0;0
74436;PMS7003;62868;52.360;30.424;2023-07-31T15:10:41;0;0;0
74436;PMS7003;62868;52.360;30.424;2023-07-31T15:15:47;0;0;0
74436;PMS7003;62868;52.360;30.424;2023-07-31T15:20:57;0;0;0
74436;PMS7003;62868;52.360;30.424;2023-07-31T15:25:41;0;0;0
74436;PMS7003;62868;52.360;30.424;2023-07-31T15:30:27;0;0;0
74436;PMS7003;62868;52.360;30.424;2023-07-31T15:35:27;0;0;0
74436;PMS7003;62868;52.360;30.424;2023-07-31T15:40:57;0;0;0
74436;PMS7003;62868;52.360;30.424;2023-07-31T15:45:55;0;0;0
74436;PMS7003;62868;52.360;30.424;2023-07-31T15:50:57;0;0;0
74436;PMS7003;62868;52.360;30.424;2023-07-31T15:55:57;0;0;0
74436;PMS7003;62868;52.360;30.424;2023-07-31T16:00:33;0;0;0
74436;PMS7003;62868;52.360;30.424;2023-07-31T16:05:21;0;0;0
74436;PMS7003;62868;52.360;30.424;2023-07-31T16:10:41;0;0;0
74436;PMS7003;62868;52.360;30.424;2023-07-31T16:15:57;0;0;0
74436;PMS7003;62868;52.360;30.424;2023-07-31T16:20:41;0;0;0
74436;PMS7003;62868;52.360;30.424;2023-07-31T16:25:31;0;0;0
74436;PMS7003;62868;52.360;30.424;2023-07-31T16:30:57;0;0;0
74436;PMS7003;62868;52.360;30.424;2023-07-31T16:35:13;0;0;0
74436;PMS7003;62868;52.360;30.424;2023-07-31T16:40:17;0;0;0
74436;PMS7003;62868;52.360;30.424;2023-07-31T16:45:23;0;0;0
74436;PMS7003;62868;52.360;30.424;2023-07-31T16:50:39;0;0;0
74436;PMS7003;62868;52.360;30.424;2023-07-31T16:55:41;0;0;0
74436;PMS7003;62868;52.360;30.424;2023-07-31T17:00:23;0;0;0
74436;PMS7003;62868;52.360;30.424;2023-07-31T17:05:13;0;0;0
74436;PMS7003;62868;52.360;30.424;2023-07-31T17:10:13;0;0;0
74436;PMS7003;62868;52.360;30.424;2023-07-31T17:15:17;0;0;0
74436;PMS7003;62868;52.360;30.424;2023-07-31T17:20:23;0;0;0
74436;PMS7003;62868;52.360;30.424;2023-07-31T17:25:13;0;0;0
74436;PMS7003;62868;52.360;30.424;2023-07-31T17:30:41;0;0;0
74436;PMS7003;62868;52.360;30.424;2023-07-31T17:35:57;0;0;0
74436;PMS7003;62868;52.360;30.424;2023-07-31T17:40:31;0;0;0
74436;PMS7003;62868;52.360;30.424;2023-07-31T17:45:13;0;0;0
74436;PMS7003;62868;52.360;30.424;2023-07-31T17:50:41;0;0;0
74436;PMS7003;62868;52.360;30.424;2023-07-31T17:55:17;0.3;0.3;0.3
74436;PMS7003;62868;52.360;30.424;2023-07-31T18:00:17;0.7;0.7;0.3
74436;PMS7003;62868;52.360;30.424;2023-07-31T18:05:49;0.7;0;0
74436;PMS7003;62868;52.360;30.424;2023-07-31T18:10:59;0.5;0.5;0
74436;PMS7003;62868;52.360;30.424;2023-07-31T18:15:25;0;0;0
74436;PMS7003;62868;52.360;30.424;2023-07-31T18:20:13;1.3;0.7;0.3
74436;PMS7003;62868;52.360;30.424;2023-07-31T18:25:31;1;1;0.7
74436;PMS7003;62868;52.360;30.424;2023-07-31T18:30:43;1;0.5;0.3
74436;PMS7003;62868;52.360;30.424;2023-07-31T18:35:17;1.3;1.3;0.3
74436;PMS7003;62868;52.360;30.424;2023-07-31T18:40:13;0.7;0.7;0.7
74436;PMS7003;62868;52.360;30.424;2023-07-31T18:45:49;0.7;0.7;0.3
74436;PMS7003;62868;52.360;30.424;2023-07-31T18:50:13;0.8;0.5;0.5
74436;PMS7003;62868;52.360;30.424;2023-07-31T18:55:13;0;0;0
74436;PMS7003;62868;52.360;30.424;2023-07-31T19:00:59;1.7;1.7;1
74436;PMS7003;62868;52.360;30.424;2023-07-31T19:05:49;1;0.8;0.8
74436;PMS7003;62868;52.360;30.424;2023-07-31T19:10:13;1.3;1;0.7
74436;PMS7003;62868;52.360;30.424;2023-07-31T19:15:29;1;1;1
74436;PMS7003;62868;52.360;30.424;2023-07-31T19:20:57;1.3;1.3;1
74436;PMS7003;62868;52.360;30.424;2023-07-31T19:25:17;1.5;0.8;0.3
74436;PMS7003;62868;52.360;30.424;2023-07-31T19:30:25;2;1.3;1
74436;PMS7003;62868;52.360;30.424;2023-07-31T19:35:43;1;1;0.7
74436;PMS7003;62868;52.360;30.424;2023-07-31T19:40:49;1.3;1;0.7
74436;PMS7003;62868;52.360;30.424;2023-07-31T19:45:59;1.7;1.3;1
74436;PMS7003;62868;52.360;30.424;2023-07-31T19:50:17;1.3;1.3;1
74436;PMS7003;62868;52.360;30.424;2023-07-31T19:55:17;2.5;2.5;2.5
74436;PMS7003;62868;52.360;30.424;2023-07-31T20:00:13;2.3;1;1
74436;PMS7003;62868;52.360;30.424;2023-07-31T20:05:57;1.7;1.7;0.7
74436;PMS7003;62868;52.360;30.424;2023-07-31T20:10:59;1.3;1.3;1
74436;PMS7003;62868;52.360;30.424;2023-07-31T20:15:59;1.5;1;0.5
74436;PMS7003;62868;52.360;30.424;2023-07-31T20:20:59;0.7;0.7;0.3
74436;PMS7003;62868;52.360;30.424;2023-07-31T20:25:43;0;0;0
74436;PMS7003;62868;52.360;30.424;2023-07-31T20:30:13;1.5;1.5;1.5
74436;PMS7003;62868;52.360;30.424;2023-07-31T20:35:43;2;2;1
74436;PMS7003;62868;52.360;30.424;2023-07-31T20:40:57;1;1;1
74436;PMS7003;62868;52.360;30.424;2023-07-31T20:45:59;1.3;1.3;1.3
74436;PMS7003;62868;52.360;30.424;2023-07-31T20:50:31;1.7;1.7;1
74436;PMS7003;62868;52.360;30.424;2023-07-31T20:55:59;1.5;1.5;1
74436;PMS7003;62868;52.360;30.424;2023-07-31T21:00:13;1;1;0
74436;PMS7003;62868;52.360;30.424;2023-07-31T21:05:25;2.3;2;1.3
74436;PMS7003;62868;52.360;30.424;2023-07-31T21:10:25;1.3;1.3;1
74436;PMS7003;62868;52.360;30.424;2023-07-31T21:15:33;1.8;1.3;1
74436;PMS7003;62868;52.360;30.424;2023-07-31T21:20:45;2;2;1.7
74436;PMS7003;62868;52.360;30.424;2023-07-31T21:25:43;2;2;1.7
74436;PMS7003;62868;52.360;30.424;2023-07-31T21:30:13;2.3;2.3;2
74436;PMS7003;62868;52.360;30.424;2023-07-31T21:35:13;2.8;2.3;1.8
74436;PMS7003;62868;52.360;30.424;2023-07-31T21:40:13;2.3;2.3;2
74436;PMS7003;62868;52.360;30.424;2023-07-31T21:45:41;2.3;2.3;2
74436;PMS7003;62868;52.360;30.424;2023-07-31T21:50:31;2.7;2.7;2
74436;PMS7003;62868;52.360;30.424;2023-07-31T21:55:41;3;2.5;2
74436;PMS7003;62868;52.360;30.424;2023-07-31T22:00:59;2;1.7;1.7
74436;PMS7003;62868;52.360;30.424;2023-07-31T22:05:33;2;2;1.7
74436;PMS7003;62868;52.360;30.424;2023-07-31T22:10:13;3;2.7;2
74436;PMS7003;62868;52.360;30.424;2023-07-31T22:15:41;2.3;2.3;1.8
74436;PMS7003;62868;52.360;30.424;2023-07-31T22:20:25;2.3;2;1.7
74436;PMS7003;62868;52.360;30.424;2023-07-31T22:25:13;2;1.7;1.7
74436;PMS7003;62868;52.360;30.424;2023-07-31T22:30:45;2.3;1.8;1.3
74436;PMS7003;62868;52.360;30.424;2023-07-31T22:35:59;2;1.7;1.3
74436;PMS7003;62868;52.360;30.424;2023-07-31T22:40:13;2;2;1.3
74436;PMS7003;62868;52.360;30.424;2023-07-31T22:45:13;1.3;1;1
74436;PMS7003;62868;52.360;30.424;2023-07-31T22:50:59;2;1.5;1.3
74436;PMS7003;62868;52.360;30.424;2023-07-31T22:55:25;2.3;2;1.3
74436;PMS7003;62868;52.360;30.424;2023-07-31T23:00:31;1.7;1.7;1
74436;PMS7003;62868;52.360;30.424;2023-07-31T23:05:33;1.7;1.7;1.3
74436;PMS7003;62868;52.360;30.424;2023-07-31T23:10:49;1;1;1
74436;PMS7003;62868;52.360;30.424;2023-07-31T23:15:43;1.7;1.3;1
74436;PMS7003;62868;52.360;30.424;2023-07-31T23:20:29;1.3;1;1
74436;PMS7003;62868;52.360;30.424;2023-07-31T23:25:55;1.3;1.3;1
74436;PMS7003;62868;52.360;30.424;2023-07-31T23:30:49;1.3;1.3;1
74436;PMS7003;62868;52.360;30.424;2023-07-31T23:35:31;2;1.7;1
74436;PMS7003;62868;52.360;30.424;2023-07-31T23:40:13;1.3;1.3;1
74436;PMS7003;62868;52.360;30.424;2023-07-31T23:45:59;1.3;1;0.7
74436;PMS7003;62868;52.360;30.424;2023-07-31T23:50:13;1.3;1.3;1
74436;PMS7003;62868;52.360;30.424;2023-07-31T23:55:59;1;1;1
